Time;durP1;ratioP1;P1;durP2;ratioP2;P2;SDS_P1;SDS_P2;PMS_P1;PMS_P2;Temp;Humidity;BMP_temperature;BMP_pressure;BME280_temperature;BME280_humidity;BME280_pressure;Samples;Min_cycle;Max_cycle;Signal;HPM_P1;HPM_P2
2022/01/12 00:00:27;;;;;;;;;;;0.40;99.90;;;;;;5053503;28;20060;-66
2022/01/12 00:02:53;;;;;;;4.60;2.85;;;0.40;99.90;;;;;;5052628;28;19905;-66
2022/01/12 00:05:20;;;;;;;4.03;2.90;;;0.40;99.90;;;;;;5051946;28;20045;-66
2022/01/12 00:07:48;;;;;;;5.50;3.00;;;0.40;99.90;;;;;;5052463;28;20013;-66
2022/01/12 00:10:14;;;;;;;5.35;3.15;;;0.40;99.90;;;;;;5052453;28;20029;-66
2022/01/12 00:12:39;;;;;;;3.42;2.95;;;0.30;99.90;;;;;;5052451;28;20021;-66
2022/01/12 00:15:06;;;;;;;5.88;3.25;;;0.30;99.90;;;;;;5052404;28;20029;-66
2022/01/12 00:17:32;;;;;;;3.60;2.97;;;0.20;99.90;;;;;;5052630;28;20032;-66
2022/01/12 00:19:57;;;;;;;6.75;3.50;;;0.20;99.90;;;;;;5052307;28;20032;-66
2022/01/12 00:22:23;;;;;;;5.95;3.35;;;0.20;99.90;;;;;;5052257;28;20029;-66
2022/01/12 00:35:34;;;;;;;6.30;3.03;;;0.00;99.90;;;;;;5052471;28;20029;-66
2022/01/12 00:38:00;;;;;;;5.65;3.03;;;0.00;99.90;;;;;;5051746;28;20044;-66
2022/01/12 00:40:26;;;;;;;3.58;2.85;;;0.00;99.90;;;;;;5052129;28;20025;-66
2022/01/12 00:42:53;;;;;;;6.47;3.35;;;-0.10;99.90;;;;;;5052293;28;20074;-66
2022/01/12 00:45:20;;;;;;;3.92;3.08;;;0.00;99.90;;;;;;5052035;28;20134;-66
2022/01/12 00:47:46;;;;;;;4.45;2.80;;;-0.10;99.90;;;;;;5051936;28;20025;-66
2022/01/12 00:50:11;;;;;;;5.35;3.17;;;-0.10;99.90;;;;;;5051929;28;20021;-66
2022/01/12 00:52:37;;;;;;;4.70;2.78;;;0.00;99.90;;;;;;5052188;28;20454;-66
2022/01/12 00:55:03;;;;;;;4.78;2.72;;;0.00;99.90;;;;;;5051839;28;20032;-66
2022/01/12 00:57:30;;;;;;;5.18;2.95;;;0.00;99.90;;;;;;5051930;28;20107;-65
2022/01/12 00:59:56;;;;;;;4.53;2.65;;;0.00;99.90;;;;;;5051956;28;20036;-65
2022/01/12 01:02:22;;;;;;;3.50;2.35;;;-0.10;99.90;;;;;;5051845;28;20017;-65
2022/01/12 01:04:48;;;;;;;4.63;2.97;;;0.00;99.90;;;;;;5051812;28;20427;-65
2022/01/12 01:07:14;;;;;;;4.32;2.72;;;0.00;99.90;;;;;;5051676;28;20025;-65
2022/01/12 01:09:46;;;;;;;4.07;2.70;;;0.10;99.90;;;;;;5052158;28;20075;-71
2022/01/12 01:12:12;;;;;;;5.45;2.90;;;0.20;99.90;;;;;;5051647;28;20033;-70
2022/01/12 01:15:29;;;;;;;3.63;2.38;;;0.20;99.90;;;;;;5051828;28;20071;-70
2022/01/12 01:25:45;;;;;;;3.50;2.47;;;0.30;99.90;;;;;;5055787;28;20118;-70
2022/01/12 01:28:13;;;;;;;3.65;2.38;;;0.20;99.90;;;;;;5055681;28;20484;-70
2022/01/12 01:30:40;;;;;;;4.05;2.70;;;0.20;99.90;;;;;;5055835;28;20373;-70
2022/01/12 01:33:09;;;;;;;5.30;2.67;;;0.20;99.90;;;;;;5055299;28;20100;-70
2022/01/12 01:35:46;;;;;;;3.53;2.10;;;0.20;99.90;;;;;;5055479;28;20025;-70
2022/01/12 01:38:12;;;;;;;2.72;2.35;;;0.20;99.90;;;;;;5055105;28;20049;-70
2022/01/12 01:40:41;;;;;;;2.80;2.30;;;0.10;99.90;;;;;;5055344;28;20025;-70
2022/01/12 01:43:17;;;;;;;2.80;2.50;;;0.10;99.90;;;;;;5055186;28;20028;-69
2022/01/12 01:53:58;;;;;;;3.40;2.47;;;-0.30;99.90;;;;;;5055458;28;20143;-70
2022/01/12 01:56:24;;;;;;;2.72;2.10;;;-0.40;99.90;;;;;;5054935;28;20033;-71
2022/01/12 01:58:50;;;;;;;3.58;2.80;;;-0.40;99.90;;;;;;5054985;28;20451;-71
2022/01/12 02:01:16;;;;;;;4.20;2.35;;;-0.40;99.90;;;;;;5054941;28;20144;-70
2022/01/12 02:03:43;;;;;;;3.28;2.60;;;-0.40;99.90;;;;;;5055158;28;20033;-70
2022/01/12 02:06:10;;;;;;;5.85;2.55;;;-0.40;99.90;;;;;;5054769;28;20116;-70
2022/01/12 02:08:36;;;;;;;4.22;2.72;;;-0.40;99.90;;;;;;5054860;28;20036;-70
2022/01/12 02:11:02;;;;;;;2.80;2.22;;;-0.40;99.90;;;;;;5055119;28;20396;-69
2022/01/12 02:13:29;;;;;;;4.20;2.90;;;-0.40;99.90;;;;;;5054900;28;20021;-70
2022/01/12 02:15:57;;;;;;;2.53;2.22;;;-0.40;99.90;;;;;;5054777;28;20488;-69
2022/01/12 02:55:31;;;;;;;4.47;2.42;;;-0.50;99.90;;;;;;5053040;28;20088;-69
2022/01/12 02:57:57;;;;;;;3.03;2.25;;;-0.40;99.90;;;;;;5054151;28;20036;-68
2022/01/12 03:00:26;;;;;;;4.03;2.50;;;-0.40;99.90;;;;;;5054006;28;20021;-68
2022/01/12 03:02:53;;;;;;;3.85;2.30;;;-0.30;99.90;;;;;;5053726;28;20021;-68
2022/01/12 03:39:06;;;;;;;3.60;2.45;;;-0.20;99.90;;;;;;5179411;22;20412;-71
2022/01/12 03:41:35;;;;;;;2.55;2.30;;;-0.20;99.90;;;;;;5032986;28;20029;-70
2022/01/12 03:44:02;;;;;;;2.88;2.15;;;-0.20;99.90;;;;;;5033392;28;20087;-70
2022/01/12 03:46:36;;;;;;;3.50;2.00;;;-0.20;99.90;;;;;;5032903;28;20040;-70
2022/01/12 03:49:02;;;;;;;2.75;2.10;;;-0.20;99.90;;;;;;5033110;28;20527;-70
2022/01/12 03:51:28;;;;;;;2.78;2.20;;;-0.10;99.90;;;;;;5032814;28;20044;-69
2022/01/12 03:53:53;;;;;;;2.55;2.22;;;-0.10;99.90;;;;;;5032947;28;20021;-69
2022/01/12 03:56:19;;;;;;;3.05;2.55;;;-0.10;99.90;;;;;;5032951;28;20034;-70
2022/01/12 03:58:45;;;;;;;1.98;1.77;;;-0.10;99.90;;;;;;5032924;28;20072;-70
2022/01/12 04:01:11;;;;;;;3.13;2.05;;;-0.10;99.90;;;;;;5033030;28;20472;-70
2022/01/12 04:03:44;;;;;;;3.05;2.28;;;-0.10;99.90;;;;;;5032653;28;20075;-70
2022/01/12 04:08:54;;;;;;;2.78;1.90;;;0.00;99.90;;;;;;5033155;28;20040;-70
2022/01/12 04:11:20;;;;;;;2.70;2.10;;;0.00;99.90;;;;;;5033093;28;20029;-70
2022/01/12 04:13:48;;;;;;;2.25;1.98;;;0.00;99.90;;;;;;5032514;28;20104;-70
2022/01/12 04:16:14;;;;;;;1.80;1.63;;;-0.10;99.90;;;;;;5032955;28;20029;-70
2022/01/12 04:18:40;;;;;;;2.60;2.15;;;0.00;99.90;;;;;;5032711;28;20621;-71
2022/01/12 04:21:08;;;;;;;2.40;1.92;;;0.00;99.90;;;;;;5032628;28;20060;-71
2022/01/12 04:23:36;;;;;;;2.47;2.25;;;0.10;99.90;;;;;;5032529;28;20527;-71
2022/01/12 04:26:09;;;;;;;2.88;2.20;;;0.10;99.90;;;;;;5032332;28;20092;-71
2022/01/12 04:28:38;;;;;;;2.28;1.92;;;0.10;99.90;;;;;;5032247;28;20032;-71
2022/01/12 04:31:04;;;;;;;3.70;2.00;;;0.10;99.90;;;;;;5032631;28;20091;-71
2022/01/12 04:33:31;;;;;;;5.18;2.10;;;0.10;99.90;;;;;;5032131;28;20070;-71
2022/01/12 04:35:57;;;;;;;3.05;2.22;;;0.10;99.90;;;;;;5032240;28;20468;-71
2022/01/12 04:38:25;;;;;;;2.30;2.10;;;0.10;99.90;;;;;;5031956;28;20408;-71
2022/01/12 04:40:51;;;;;;;3.38;2.00;;;0.10;99.90;;;;;;5032175;28;20022;-71
2022/01/12 04:43:19;;;;;;;3.70;2.38;;;0.10;99.90;;;;;;5032007;28;20468;-71
2022/01/12 04:50:41;;;;;;;3.33;2.25;;;0.10;99.90;;;;;;5032399;28;20056;-71
2022/01/12 04:53:07;;;;;;;3.35;2.10;;;0.10;99.90;;;;;;5031889;28;20099;-71
2022/01/12 04:55:33;;;;;;;2.47;1.80;;;0.20;99.90;;;;;;5031941;28;20032;-70
2022/01/12 04:57:59;;;;;;;1.83;1.65;;;0.20;99.90;;;;;;5032198;28;20026;-71
2022/01/12 05:00:26;;;;;;;3.15;1.90;;;0.30;99.90;;;;;;5031820;28;20491;-70
2022/01/12 05:13:35;;;;;;;1.90;1.63;;;0.60;99.90;;;;;;5031875;28;20041;-75
2022/01/12 05:16:01;;;;;;;2.10;1.77;;;1.30;99.90;;;;;;5031864;28;20021;-76
2022/01/12 05:18:32;;;;;;;2.63;1.90;;;1.20;99.90;;;;;;5027329;28;20030;-71
2022/01/12 05:20:58;;;;;;;2.63;1.90;;;1.10;99.90;;;;;;5006236;28;20037;-77
2022/01/12 05:23:24;;;;;;;1.85;1.67;;;1.00;99.90;;;;;;4999445;28;20031;-72
2022/01/12 05:25:52;;;;;;;5.28;2.17;;;1.00;99.90;;;;;;4982875;28;20026;-81
2022/01/12 05:28:19;;;;;;;2.25;1.83;;;1.00;99.90;;;;;;5002182;28;20010;-77
2022/01/12 05:30:46;;;;;;;1.90;1.67;;;1.00;99.90;;;;;;5006767;28;20026;-75
2022/01/12 05:33:12;;;;;;;3.67;1.90;;;1.00;99.90;;;;;;5000572;28;20030;-74
2022/01/12 05:35:38;;;;;;;3.35;2.20;;;1.00;99.90;;;;;;5001492;28;20023;-77
2022/01/12 05:38:08;;;;;;;2.88;1.88;;;1.00;99.90;;;;;;5001641;28;20488;-74
2022/01/12 05:40:34;;;;;;;2.07;1.70;;;1.00;99.90;;;;;;5005569;28;20026;-75
2022/01/12 05:43:01;;;;;;;4.22;1.88;;;1.00;99.90;;;;;;5003375;28;20022;-68
2022/01/12 05:45:28;;;;;;;3.22;2.05;;;1.00;99.90;;;;;;5002628;28;20115;-71
2022/01/12 05:50:21;;;;;;;2.63;1.60;;;1.00;99.90;;;;;;5009178;28;20021;-69
2022/01/12 05:52:47;;;;;;;2.40;1.52;;;0.90;99.90;;;;;;5011926;28;20030;-70
2022/01/12 05:55:15;;;;;;;2.45;1.90;;;1.00;99.90;;;;;;5011708;28;20026;-70
2022/01/12 05:57:41;;;;;;;3.92;1.80;;;1.10;99.90;;;;;;5011780;28;20366;-70
2022/01/12 06:00:13;;;;;;;3.22;1.65;;;1.10;99.90;;;;;;5011598;28;20022;-70
2022/01/12 06:02:39;;;;;;;2.95;1.67;;;1.10;99.90;;;;;;5011819;28;20057;-72
2022/01/12 06:05:06;;;;;;;2.20;1.80;;;1.10;99.90;;;;;;5014052;28;20038;-75
2022/01/12 06:07:31;;;;;;;3.17;2.33;;;1.10;99.90;;;;;;4997540;28;20053;-73
2022/01/12 06:09:57;;;;;;;2.25;1.55;;;1.10;99.90;;;;;;5015068;28;20489;-75
2022/01/12 06:12:23;;;;;;;2.25;1.83;;;1.10;99.90;;;;;;5015073;28;20029;-74
2022/01/12 06:14:48;;;;;;;3.47;1.77;;;1.10;99.90;;;;;;5014837;28;20030;-75
2022/01/12 06:17:14;;;;;;;4.45;1.65;;;1.20;99.90;;;;;;5015250;28;20026;-72
2022/01/12 06:19:40;;;;;;;3.50;1.65;;;1.20;99.90;;;;;;5014778;28;20030;-72
2022/01/12 06:22:06;;;;;;;2.58;1.60;;;1.20;99.90;;;;;;5009146;28;20033;-72
2022/01/12 06:24:32;;;;;;;2.67;1.92;;;1.20;99.90;;;;;;4995192;28;20026;-72
2022/01/12 06:27:00;;;;;;;1.70;1.50;;;1.20;99.90;;;;;;4995123;28;20113;-72
2022/01/12 06:32:18;;;;;;;2.13;1.48;;;1.20;99.90;;;;;;4979457;28;20065;-73
2022/01/12 06:34:45;;;;;;;2.35;1.55;;;1.20;99.90;;;;;;4995067;28;20386;-73
2022/01/12 06:37:11;;;;;;;1.70;1.60;;;1.40;99.90;;;;;;4994797;28;20532;-72
2022/01/12 06:39:37;;;;;;;68.95;34.10;;;1.40;99.90;;;;;;4995022;28;20039;-68
2022/01/12 06:42:03;;;;;;;26.75;16.00;;;1.30;99.90;;;;;;4995786;28;23706;-72
2022/01/12 06:44:29;;;;;;;7.80;6.20;;;1.30;99.90;;;;;;5014296;28;20527;-76
2022/01/12 06:46:56;;;;;;;10.45;8.05;;;1.20;99.90;;;;;;5014236;28;20034;-73
2022/01/12 06:49:22;;;;;;;4.20;3.13;;;1.20;99.90;;;;;;5014629;28;20097;-73
2022/01/12 06:51:48;;;;;;;3.15;2.80;;;1.20;99.90;;;;;;5014592;28;20062;-73
2022/01/12 06:54:16;;;;;;;7.70;2.38;;;1.20;99.90;;;;;;5014340;28;20478;-70
2022/01/12 06:56:42;;;;;;;1.83;1.50;;;1.50;99.90;;;;;;5014519;28;20044;-70
2022/01/12 06:59:09;;;;;;;5.28;1.92;;;1.50;99.90;;;;;;5014582;28;20088;-69
2022/01/12 07:01:35;;;;;;;5.10;3.75;;;1.40;99.90;;;;;;5014229;28;20038;-70
2022/01/12 07:04:01;;;;;;;3.38;3.08;;;1.40;99.90;;;;;;4996339;28;20502;-72
2022/01/12 07:06:26;;;;;;;3.38;1.63;;;1.30;99.90;;;;;;5014292;28;20046;-71
2022/01/12 07:08:52;;;;;;;3.20;2.90;;;1.30;99.90;;;;;;5014115;28;20536;-75
2022/01/12 07:11:18;;;;;;;2.22;1.60;;;1.30;99.90;;;;;;5014163;28;20436;-70
2022/01/12 07:13:44;;;;;;;1.60;1.50;;;1.30;99.90;;;;;;5007945;28;20469;-71
2022/01/12 07:16:11;;;;;;;2.20;2.00;;;1.30;99.90;;;;;;5004410;28;20029;-70
2022/01/12 07:18:38;;;;;;;3.40;1.58;;;1.40;99.90;;;;;;5001545;28;20120;-70
2022/01/12 07:21:05;;;;;;;2.35;1.52;;;1.40;99.90;;;;;;5011593;28;20088;-68
2022/01/12 07:23:30;;;;;;;5.25;1.40;;;1.40;99.90;;;;;;5005228;28;20065;-68
2022/01/12 07:25:56;;;;;;;3.92;1.58;;;1.40;99.90;;;;;;5006901;28;20038;-70
2022/01/12 07:28:23;;;;;;;2.22;1.27;;;1.40;99.90;;;;;;5001621;28;20025;-68
2022/01/12 07:30:50;;;;;;;1.88;1.65;;;1.40;99.90;;;;;;5003859;28;20027;-68
2022/01/12 07:33:16;;;;;;;1.50;1.20;;;1.40;99.90;;;;;;5004886;28;20029;-71
2022/01/12 07:35:43;;;;;;;7.97;1.60;;;1.40;99.90;;;;;;4979574;28;20030;-69
2022/01/12 07:38:09;;;;;;;2.00;1.40;;;1.60;99.90;;;;;;5012980;28;20053;-67
2022/01/12 07:40:35;;;;;;;2.20;1.30;;;1.60;99.90;;;;;;5013348;28;20366;-68
2022/01/12 07:43:06;;;;;;;1.63;1.38;;;1.50;99.90;;;;;;4995695;28;20381;-68
2022/01/12 07:45:32;;;;;;;2.88;1.30;;;1.40;99.90;;;;;;5013356;28;20030;-68
2022/01/12 07:47:57;;;;;;;1.55;1.40;;;1.40;99.90;;;;;;5012963;28;20480;-68
2022/01/12 07:50:23;;;;;;;2.90;1.13;;;1.40;99.90;;;;;;5013335;28;20033;-68
2022/01/12 07:52:53;;;;;;;1.48;1.30;;;1.40;99.90;;;;;;5013267;28;20057;-68
2022/01/12 07:55:20;;;;;;;2.85;1.42;;;1.40;99.90;;;;;;5013103;28;20358;-68
2022/01/12 07:57:46;;;;;;;1.90;1.30;;;1.30;99.90;;;;;;5012914;28;20038;-68
2022/01/12 08:00:12;;;;;;;1.92;1.10;;;1.30;99.90;;;;;;5008330;28;20532;-68
2022/01/12 08:02:50;;;;;;;3.53;1.70;;;1.30;99.90;;;;;;5013183;28;20080;-68
2022/01/12 08:05:17;;;;;;;1.52;1.33;;;1.20;99.90;;;;;;5012712;28;20030;-67
2022/01/12 08:07:43;;;;;;;6.75;2.20;;;2.00;99.90;;;;;;5012689;28;20331;-68
2022/01/12 08:10:09;;;;;;;3.90;1.70;;;1.70;99.90;;;;;;4991784;28;20531;-68
2022/01/12 08:12:37;;;;;;;5.40;1.77;;;1.50;99.90;;;;;;4992993;28;20029;-68
2022/01/12 08:15:04;;;;;;;6.20;1.90;;;1.30;99.90;;;;;;4993281;28;20440;-68
2022/01/12 08:17:30;;;;;;;2.58;1.60;;;1.20;99.90;;;;;;4993199;28;20046;-68
2022/01/12 08:19:57;;;;;;;4.13;1.73;;;1.10;99.90;;;;;;4993364;28;20065;-67
2022/01/12 08:22:23;;;;;;;2.22;1.45;;;1.00;99.90;;;;;;4993134;28;20030;-67
2022/01/12 08:24:49;;;;;;;1.92;1.60;;;1.00;99.90;;;;;;4992882;28;20081;-67
2022/01/12 08:27:15;;;;;;;4.47;1.90;;;0.90;99.90;;;;;;4992446;28;20165;-68
2022/01/12 08:29:41;;;;;;;4.57;1.88;;;0.90;99.90;;;;;;4993009;28;20023;-67
2022/01/12 08:32:07;;;;;;;2.10;1.50;;;0.90;99.90;;;;;;4992928;28;20034;-67
2022/01/12 08:34:32;;;;;;;2.25;1.35;;;0.90;99.90;;;;;;4992804;28;20511;-69
2022/01/12 08:36:59;;;;;;;2.67;1.60;;;0.90;99.90;;;;;;4992398;28;20026;-68
2022/01/12 08:39:25;;;;;;;2.00;1.80;;;0.90;99.90;;;;;;4992696;28;20039;-69
2022/01/12 08:41:51;;;;;;;2.10;1.40;;;0.90;99.90;;;;;;4992435;28;20034;-68
2022/01/12 08:44:17;;;;;;;1.75;1.48;;;1.00;99.90;;;;;;4992976;28;20101;-69
2022/01/12 08:46:44;;;;;;;2.15;1.52;;;1.00;99.90;;;;;;4992360;28;20133;-69
2022/01/12 08:49:10;;;;;;;2.22;1.73;;;1.00;99.90;;;;;;4992696;28;20102;-69
2022/01/12 08:51:37;;;;;;;1.98;1.40;;;1.00;99.90;;;;;;4993015;28;20049;-72
2022/01/12 08:54:04;;;;;;;1.88;1.60;;;1.00;99.90;;;;;;4997319;28;20042;-73
2022/01/12 08:56:30;;;;;;;1.85;1.38;;;1.10;99.90;;;;;;5000265;28;20052;-71
2022/01/12 08:58:56;;;;;;;3.47;1.38;;;1.10;99.90;;;;;;4992469;28;20393;-72
2022/01/12 09:01:22;;;;;;;4.40;1.85;;;1.20;99.90;;;;;;4994924;28;20109;-73
2022/01/12 09:03:49;;;;;;;3.70;1.50;;;1.80;99.90;;;;;;4992667;28;20393;-72
2022/01/12 09:06:14;;;;;;;2.67;1.98;;;2.10;99.90;;;;;;4992375;28;20046;-71
2022/01/12 09:08:42;;;;;;;3.45;1.85;;;3.60;99.90;;;;;;4992457;28;20073;-70
2022/01/12 09:11:08;;;;;;;2.72;1.92;;;3.20;99.90;;;;;;4992604;28;20107;-71
2022/01/12 09:13:35;;;;;;;2.40;1.90;;;2.70;99.90;;;;;;4992461;28;20018;-71
2022/01/12 09:16:06;;;;;;;2.47;2.00;;;2.40;99.90;;;;;;4994643;28;20026;-71
2022/01/12 09:18:34;;;;;;;1.70;1.35;;;2.20;99.90;;;;;;5001780;28;20097;-72
2022/01/12 09:21:00;;;;;;;2.90;1.70;;;2.10;99.90;;;;;;5003201;28;20113;-71
2022/01/12 09:23:26;;;;;;;2.30;1.70;;;2.70;99.90;;;;;;5000973;28;20102;-69
2022/01/12 09:25:52;;;;;;;2.58;1.90;;;3.20;99.90;;;;;;5002662;28;20467;-70
2022/01/12 09:28:18;;;;;;;3.25;1.98;;;3.30;99.90;;;;;;4997777;28;20106;-67
2022/01/12 09:30:44;;;;;;;2.13;1.80;;;2.80;99.90;;;;;;5002449;28;20604;-67
2022/01/12 09:33:09;;;;;;;3.40;2.35;;;2.50;99.90;;;;;;5006447;28;20065;-66
2022/01/12 09:35:36;;;;;;;5.95;2.80;;;2.20;99.90;;;;;;4999673;28;20072;-65
2022/01/12 09:38:02;;;;;;;12.32;7.07;;;2.00;99.90;;;;;;5001188;28;20100;-65
2022/01/12 09:40:27;;;;;;;10.70;6.68;;;1.90;99.90;;;;;;5001361;28;20487;-68
2022/01/12 09:42:54;;;;;;;8.68;5.32;;;1.80;99.90;;;;;;4996274;28;20038;-67
2022/01/12 09:45:20;;;;;;;5.88;3.55;;;1.80;99.90;;;;;;4995800;28;20136;-68
2022/01/12 09:47:49;;;;;;;3.65;2.58;;;1.70;99.90;;;;;;4998588;28;20041;-68
2022/01/12 09:50:19;;;;;;;3.70;2.20;;;1.70;99.90;;;;;;5012412;28;20057;-68
2022/01/12 09:52:45;;;;;;;4.70;3.30;;;1.70;99.90;;;;;;5015720;28;20400;-68
2022/01/12 09:55:11;;;;;;;5.50;4.75;;;1.70;99.90;;;;;;5015391;28;20029;-68
2022/01/12 09:57:37;;;;;;;4.43;3.03;;;1.60;99.90;;;;;;5009071;28;20060;-69
2022/01/12 10:00:07;;;;;;;4.88;2.85;;;1.60;99.90;;;;;;5005070;28;20018;-67
2022/01/12 10:02:33;;;;;;;7.97;5.25;;;1.70;99.90;;;;;;5003834;28;20027;-68
2022/01/12 10:05:01;;;;;;;4.18;2.67;;;1.60;99.90;;;;;;5000216;28;20069;-68
2022/01/12 10:07:26;;;;;;;4.78;2.38;;;1.70;99.90;;;;;;4995886;28;20038;-68
2022/01/12 10:09:56;;;;;;;4.03;2.45;;;1.70;99.90;;;;;;4995358;28;20540;-68
2022/01/12 10:12:24;;;;;;;5.05;2.72;;;1.80;99.90;;;;;;5000784;28;20026;-68
2022/01/12 10:14:55;;;;;;;2.78;2.10;;;1.80;99.90;;;;;;5005632;28;20026;-68
2022/01/12 10:17:40;;;;;;;3.80;2.22;;;1.80;99.90;;;;;;5004900;28;20050;-68
2022/01/12 10:20:19;;;;;;;3.30;2.13;;;1.80;99.90;;;;;;5002598;28;20037;-68
2022/01/12 10:23:06;;;;;;;3.03;2.10;;;1.80;99.90;;;;;;4995602;28;20046;-67
2022/01/12 10:25:32;;;;;;;4.28;2.03;;;1.90;99.90;;;;;;4977733;28;20188;-67
2022/01/12 10:27:59;;;;;;;3.60;1.90;;;1.90;99.90;;;;;;4995086;28;20073;-67
2022/01/12 10:30:30;;;;;;;5.18;2.58;;;1.90;99.90;;;;;;4995099;28;20027;-66
2022/01/12 10:33:01;;;;;;;2.88;1.92;;;1.90;99.90;;;;;;4994986;28;20022;-67
2022/01/12 10:35:28;;;;;;;2.70;1.80;;;1.90;99.90;;;;;;5006067;28;20393;-67
2022/01/12 10:38:15;;;;;;;3.00;1.65;;;1.90;99.90;;;;;;5014167;28;20050;-65
2022/01/12 10:40:56;;;;;;;1.70;1.60;;;1.90;99.90;;;;;;5005223;28;20034;-66
2022/01/12 10:43:29;;;;;;;3.08;2.10;;;2.10;99.90;;;;;;5005259;28;20111;-67
2022/01/12 10:45:54;;;;;;;2.70;1.90;;;2.30;99.90;;;;;;5004760;28;20085;-64
2022/01/12 10:48:21;;;;;;;2.50;1.80;;;2.30;99.90;;;;;;5003338;28;20018;-69
2022/01/12 10:51:00;;;;;;;4.38;1.73;;;2.20;99.90;;;;;;5003984;28;20413;-69
2022/01/12 10:53:33;;;;;;;2.80;1.58;;;2.10;99.90;;;;;;5004013;28;20029;-68
2022/01/12 10:56:04;;;;;;;1.60;1.30;;;2.00;99.90;;;;;;5004971;28;20038;-69
2022/01/12 10:58:31;;;;;;;1.55;1.45;;;2.00;99.90;;;;;;5004869;28;20030;-68
2022/01/12 11:00:57;;;;;;;2.78;1.67;;;2.00;99.90;;;;;;5001318;28;20381;-68
2022/01/12 11:03:23;;;;;;;3.60;1.80;;;2.00;99.90;;;;;;5011206;28;20104;-68
2022/01/12 11:05:50;;;;;;;2.80;1.70;;;2.00;99.90;;;;;;5004587;28;20148;-68
2022/01/12 11:08:18;;;;;;;3.22;1.60;;;1.90;99.90;;;;;;5005735;28;20381;-68
2022/01/12 11:10:45;;;;;;;1.88;1.35;;;1.90;99.90;;;;;;5002783;28;20033;-69
2022/01/12 11:13:12;;;;;;;3.00;1.58;;;1.90;99.90;;;;;;5013996;28;20492;-67
2022/01/12 11:15:38;;;;;;;1.52;1.42;;;1.90;99.90;;;;;;5013917;28;20639;-67
2022/01/12 11:18:04;;;;;;;2.70;1.60;;;2.20;99.90;;;;;;5000642;28;20054;-68
2022/01/12 11:20:31;;;;;;;2.13;1.67;;;2.40;99.90;;;;;;4994335;28;20025;-64
2022/01/12 11:23:11;;;;;;;1.65;1.20;;;2.30;99.90;;;;;;4994431;28;20027;-64
2022/01/12 11:25:44;;;;;;;2.25;1.52;;;2.30;99.90;;;;;;4994016;28;20117;-64
2022/01/12 11:28:17;;;;;;;2.55;1.50;;;2.20;99.90;;;;;;4993981;28;20517;-64
2022/01/12 11:30:48;;;;;;;1.80;1.55;;;2.20;99.90;;;;;;4993950;28;20065;-64
2022/01/12 11:33:14;;;;;;;3.25;1.30;;;2.20;99.90;;;;;;5009024;28;20026;-65
2022/01/12 11:35:46;;;;;;;1.63;1.23;;;2.20;99.90;;;;;;4993911;28;20528;-65
2022/01/12 11:38:28;;;;;;;5.18;1.67;;;2.10;99.90;;;;;;4993547;28;20054;-65
2022/01/12 11:41:22;;;;;;;6.03;2.53;;;3.10;99.90;;;;;;4993735;28;20026;-65
2022/01/12 11:44:12;;;;;;;14.52;4.47;;;3.50;99.90;;;;;;4993880;28;20601;-65
2022/01/12 11:46:42;;;;;;;4.00;2.08;;;3.00;99.90;;;;;;4993677;28;20038;-68
2022/01/12 11:49:08;;;;;;;2.65;1.80;;;2.80;99.90;;;;;;4998807;28;20027;-67
2022/01/12 11:51:43;;;;;;;1.60;1.30;;;2.60;99.90;;;;;;4993750;28;20038;-68
2022/01/12 11:54:15;;;;;;;1.42;1.20;;;2.50;99.90;;;;;;4993710;28;20033;-71
2022/01/12 11:56:52;;;;;;;1.40;1.23;;;2.50;99.90;;;;;;4993472;28;20165;-69
2022/01/12 11:59:19;;;;;;;2.90;1.30;;;2.90;99.90;;;;;;4995926;28;20041;-69
2022/01/12 12:01:49;;;;;;;1.58;1.13;;;3.20;99.90;;;;;;4999480;28;20033;-69
2022/01/12 12:04:30;;;;;;;1.77;1.23;;;3.30;99.90;;;;;;4996146;28;20042;-68
2022/01/12 12:07:25;;;;;;;2.03;1.30;;;3.30;99.90;;;;;;5000119;28;20038;-67
2022/01/12 12:09:57;;;;;;;1.45;1.23;;;3.10;99.90;;;;;;4993997;28;20026;-69
2022/01/12 12:12:31;;;;;;;2.05;1.30;;;2.90;99.90;;;;;;5012979;28;20025;-69
2022/01/12 12:14:59;;;;;;;3.05;1.25;;;3.20;99.90;;;;;;4998640;28;20363;-67
2022/01/12 12:17:30;;;;;;;1.17;1.08;;;5.60;99.90;;;;;;4993095;28;20378;-67
2022/01/12 12:19:56;;;;;;;1.70;1.20;;;5.50;99.90;;;;;;4993233;28;20037;-67
2022/01/12 12:22:27;;;;;;;1.60;0.70;;;4.60;99.90;;;;;;4993386;28;20363;-68
2022/01/12 12:25:06;;;;;;;2.45;1.23;;;4.10;99.90;;;;;;4992785;28;20100;-68
2022/01/12 12:27:33;;;;;;;1.47;0.97;;;3.70;99.90;;;;;;4993258;28;20132;-67
2022/01/12 12:30:00;;;;;;;3.85;1.20;;;3.80;99.90;;;;;;4992808;28;20493;-68
2022/01/12 12:32:41;;;;;;;1.45;0.85;;;3.60;99.90;;;;;;4975570;28;20037;-68
2022/01/12 12:35:11;;;;;;;4.20;1.05;;;3.40;99.90;;;;;;4993110;28;20045;-68
2022/01/12 12:37:43;;;;;;;1.35;0.93;;;3.20;99.90;;;;;;4992953;28;20086;-68
2022/01/12 12:40:13;;;;;;;1.00;0.90;;;3.10;99.90;;;;;;4992853;28;20105;-68
2022/01/12 12:42:39;;;;;;;1.40;1.05;;;3.00;99.90;;;;;;4992966;28;20054;-68
2022/01/12 12:45:06;;;;;;;1.27;0.90;;;2.90;99.90;;;;;;4992661;28;20070;-68
2022/01/12 12:47:32;;;;;;;1.02;0.93;;;2.80;99.90;;;;;;4993100;28;20030;-68
2022/01/12 12:50:02;;;;;;;0.80;0.80;;;2.80;99.90;;;;;;4992571;28;20521;-68
2022/01/12 12:52:30;;;;;;;1.90;0.90;;;2.80;99.90;;;;;;4992780;28;20033;-68
2022/01/12 12:54:59;;;;;;;2.42;0.98;;;2.70;99.90;;;;;;4995383;28;20106;-68
2022/01/12 12:57:27;;;;;;;1.17;0.90;;;2.60;99.90;;;;;;5012287;28;20106;-68
2022/01/12 13:00:13;;;;;;;3.03;0.80;;;2.60;99.90;;;;;;5001225;28;20030;-66
2022/01/12 13:02:49;;;;;;;1.00;0.90;;;2.50;99.90;;;;;;4992517;28;20118;-66
2022/01/12 13:05:19;;;;;;;1.10;0.90;;;2.50;99.90;;;;;;4992208;28;20041;-68
2022/01/12 13:07:46;;;;;;;2.17;0.70;;;2.60;99.90;;;;;;4992470;28;20497;-68
2022/01/12 13:10:15;;;;;;;1.00;0.80;;;2.50;99.90;;;;;;4994569;28;20058;-68
2022/01/12 13:12:43;;;;;;;0.75;0.70;;;2.40;99.90;;;;;;5012495;28;20505;-68
2022/01/12 13:15:16;;;;;;;1.50;0.73;;;2.40;99.90;;;;;;5016006;28;20033;-67
2022/01/12 13:17:41;;;;;;;1.02;0.90;;;2.30;99.90;;;;;;5016387;28;20544;-67
2022/01/12 13:22:49;;;;;;;1.38;1.00;;;2.30;99.90;;;;;;5016409;28;20026;-67
2022/01/12 13:25:16;;;;;;;0.82;0.80;;;2.20;99.90;;;;;;5009918;28;20496;-67
2022/01/12 13:27:45;;;;;;;2.15;1.10;;;2.20;99.90;;;;;;5015989;28;20481;-67
2022/01/12 13:30:28;;;;;;;1.48;0.90;;;2.20;99.90;;;;;;5015643;28;20054;-67
2022/01/12 13:32:56;;;;;;;2.55;1.20;;;2.20;99.90;;;;;;5005984;28;20030;-67
2022/01/12 13:35:34;;;;;;;1.02;0.80;;;2.20;99.90;;;;;;5006095;28;20022;-68
2022/01/12 13:38:03;;;;;;;1.55;0.98;;;2.30;99.90;;;;;;4995826;28;20064;-68
2022/01/12 13:40:34;;;;;;;3.37;0.80;;;2.20;99.90;;;;;;4996211;28;20057;-68
2022/01/12 13:43:02;;;;;;;2.97;1.10;;;2.20;99.90;;;;;;4996151;28;20037;-68
2022/01/12 13:45:40;;;;;;;1.08;0.82;;;2.20;99.90;;;;;;4995975;28;20058;-68
2022/01/12 13:48:16;;;;;;;1.13;0.80;;;2.20;99.90;;;;;;5008509;28;20018;-67
2022/01/12 13:50:46;;;;;;;1.20;1.10;;;2.20;99.90;;;;;;4995851;28;20581;-68
2022/01/12 13:53:11;;;;;;;0.90;0.90;;;2.20;99.90;;;;;;4996125;28;20030;-67
2022/01/12 13:55:52;;;;;;;2.42;0.80;;;2.20;99.90;;;;;;4996168;28;20031;-67
2022/01/12 13:58:18;;;;;;;0.70;0.70;;;2.20;99.90;;;;;;4995730;28;20035;-67
2022/01/12 14:00:44;;;;;;;1.25;0.80;;;2.20;99.90;;;;;;4995778;28;20034;-67
2022/01/12 14:03:19;;;;;;;0.70;0.70;;;2.20;99.90;;;;;;4995786;28;20050;-70
2022/01/12 14:05:46;;;;;;;1.00;0.77;;;2.30;99.90;;;;;;4996003;28;20046;-70
2022/01/12 14:08:14;;;;;;;1.35;0.80;;;2.30;99.90;;;;;;5006355;28;20018;-67
2022/01/12 14:10:42;;;;;;;1.15;0.90;;;2.20;99.90;;;;;;5003960;28;20018;-67
2022/01/12 14:13:09;;;;;;;1.83;0.73;;;2.10;99.90;;;;;;5005137;28;20034;-67
2022/01/12 14:15:35;;;;;;;1.42;0.80;;;2.10;99.90;;;;;;5006458;28;20115;-67
2022/01/12 14:18:01;;;;;;;0.80;0.80;;;2.00;99.90;;;;;;5013087;28;20068;-67
2022/01/12 14:20:37;;;;;;;1.25;0.82;;;2.00;99.90;;;;;;4995371;28;20084;-67
2022/01/12 14:23:09;;;;;;;0.80;0.80;;;2.00;99.90;;;;;;4995291;28;20023;-67
2022/01/12 14:25:49;;;;;;;1.10;0.80;;;2.00;99.90;;;;;;4994062;28;20486;-68
2022/01/12 14:28:23;;;;;;;;;;;2.00;99.90;;;;;;4995774;28;20038;-67
2022/01/12 14:30:49;;;;;;;0.80;0.80;;;2.00;99.90;;;;;;5003005;28;20353;-67
2022/01/12 14:33:15;;;;;;;1.33;0.75;;;2.00;99.90;;;;;;5003432;28;20037;-67
2022/01/12 14:35:41;;;;;;;1.08;0.85;;;2.00;99.90;;;;;;5003489;28;20014;-67
2022/01/12 14:38:07;;;;;;;0.95;0.80;;;2.00;99.90;;;;;;5004067;28;20043;-67
2022/01/12 14:40:33;;;;;;;1.25;0.80;;;2.00;99.90;;;;;;5004878;28;20045;-68
2022/01/12 14:43:02;;;;;;;1.80;1.08;;;2.00;99.90;;;;;;5003195;28;20205;-67
2022/01/12 14:45:33;;;;;;;2.55;0.80;;;2.00;99.90;;;;;;5004284;28;20026;-67
2022/01/12 14:48:04;;;;;;;0.75;0.75;;;2.00;99.90;;;;;;5005638;28;20026;-68
2022/01/12 14:50:32;;;;;;;1.45;0.90;;;2.10;99.90;;;;;;5003799;28;20108;-68
2022/01/12 14:52:59;;;;;;;0.80;0.80;;;2.00;99.90;;;;;;5005180;28;20022;-68
2022/01/12 14:55:26;;;;;;;0.80;0.80;;;2.10;99.90;;;;;;5003756;28;20027;-68
2022/01/12 14:57:53;;;;;;;1.20;0.73;;;2.10;99.90;;;;;;5003376;28;20389;-68
2022/01/12 15:00:25;;;;;;;1.17;0.85;;;2.10;99.90;;;;;;5006428;28;20057;-67
2022/01/12 15:02:57;;;;;;;0.90;0.90;;;2.10;99.90;;;;;;5002456;28;20098;-68
2022/01/12 15:05:23;;;;;;;1.90;0.90;;;2.10;99.90;;;;;;5002636;28;20030;-68